Redding Municipal Airport
KRDD : now visible

Airfield :











YOU CAN JOIN US ON...

 
LOGIN :

Register | Disclaimer

   EN    FR    IT 

 









Legend :    VFR   Marginal VFR   IFR   Intensive IFR   Very Intensive IFR
Visi :
Ceiling :
>= 8 km
>= 3000ft
5 to 8 km
1000 to 3000 ft
1500m to 5 km
500 to 1000 ft
800 to 1500m
200 to 500 ft
< 800m
< 200 ft
Symbols :   Thunderstorms  Fog  Heavy snow  Heavy precipitations  Wind > 20 kt






- Airport Elevation : 505 ft
- IATA code : RDD


KRDD - Redding Municipal

CURRENT METAR :
  • 110453Z 00000KT 6SM -RA BR BKN021 OVC050 09/07 A3022 RMK AO2 SLP232 P0002 T00940072

EXPIRED METARs :
  • 110432Z 00000KT 8SM -RA SCT021 BKN028 OVC050 09/07 A3021 RMK AO2 P0001 T00940072
  • 110402Z 00000KT 4SM -RA BR SCT024 OVC030 09/08 A3021 RMK AO2 P0001 T00940078
  • 110353Z 00000KT 4SM -RA BR BKN026 OVC033 09/07 A3020 RMK AO2 RAE31B49 SLP227 P0001 T00940072
  • 110329Z 00000KT 5SM -RA BR BKN027 OVC035 09/07 A3020 RMK AO2 P0001 T00940072
  • 110253Z 00000KT 7SM -RA SCT033 OVC070 09/07 A3019 RMK AO2 RAB36 SLP223 P0000 60000 T00940072 55007
  • 110153Z 00000KT 10SM OVC080 11/07 A3018 RMK AO2 SLP219 T01060067

TAF KRDD
Valid from the 11 at 00:00 until the 12 at 00:00 UTC


102325Z 1100/1124 VRB03KT P6SM BKN120
FM110400 00000KT 6SM -RA OVC025
FM110800 VRB02KT P6SM VCSH OVC010



MET'MAP, your aeronautical weather chart ! - Copyright ORBIFLY December 2007 - Disclaimer

ORBIFLY MET'MAP TEAM :

Programming & Development : Alexandra Zaïnal
Concept & original design : Baudouin d'Aumeries
Assistance for programming : Marc-Olivier Méhu
Technical & hardware support : Manuel Goepfert

Contact : metmap@orbifly.com




SOURCES & CREDITS :

   NOAA       Earth
Advisory